Time;durP1;ratioP1;P1;durP2;ratioP2;P2;SDS_P1;SDS_P2;PMS_P1;PMS_P2;Temp;Humidity;BMP_temperature;BMP_pressure;BME280_temperature;BME280_humidity;BME280_pressure;Samples;Min_cycle;Max_cycle;Signal;HPM_P1;HPM_P2
2022/03/29 04:22:34;;;;;;;21.33;12.45;;;;;;;6.11;85.91;99891.31;5129672;27;20122;-76
2022/03/29 04:25:01;;;;;;;19.00;9.75;;;;;;;6.15;86.43;99913.03;5111955;28;20031;-76
2022/03/29 04:27:27;;;;;;;17.55;11.05;;;;;;;6.16;86.36;99910.22;5127711;28;20400;-75
2022/03/29 04:29:52;;;;;;;21.33;11.93;;;;;;;6.21;87.13;99900.03;5129756;27;20039;-75
2022/03/29 04:32:18;;;;;;;22.77;12.88;;;;;;;6.27;86.46;99890.66;5128182;28;20023;-76
2022/03/29 04:34:45;;;;;;;19.33;10.82;;;;;;;6.29;86.07;99888.66;5128530;28;20035;-76
2022/03/29 04:37:11;;;;;;;18.92;12.15;;;;;;;6.15;85.39;99846.91;5060865;22;20421;-75
2022/03/29 04:39:38;;;;;;;20.48;11.02;;;;;;;6.36;85.40;99884.41;5027680;28;20095;-75
2022/03/29 04:42:05;;;;;;;18.77;10.65;;;;;;;6.39;86.04;99880.63;5028362;28;20108;-75
2022/03/29 04:44:34;;;;;;;18.27;10.07;;;;;;;6.36;86.37;99880.94;5028578;28;20042;-76
2022/03/29 04:47:00;;;;;;;20.85;11.27;;;;;;;6.34;85.96;99869.69;5027382;28;20041;-75
2022/03/29 04:49:26;;;;;;;18.25;10.43;;;;;;;6.40;85.86;99880.47;5028637;28;20084;-75
2022/03/29 04:51:51;;;;;;;20.02;10.68;;;;;;;6.35;85.78;99882.75;5028262;28;20038;-76
2022/03/29 04:54:17;;;;;;;20.70;10.32;;;;;;;6.35;85.51;99877.47;5028439;28;20044;-75
2022/03/29 04:56:43;;;;;;;17.70;10.55;;;;;;;6.38;85.46;99876.31;5027137;28;20470;-76
2022/03/29 04:59:08;;;;;;;22.08;11.35;;;;;;;6.42;85.73;99880.31;5027129;28;20038;-76
2022/03/29 05:01:36;;;;;;;20.15;11.15;;;;;;;6.45;84.21;99878.19;5028151;28;20700;-76
2022/03/29 05:04:03;;;;;;;19.73;11.77;;;;;;;6.45;84.20;99872.06;5028349;28;20037;-76
2022/03/29 05:06:29;;;;;;;18.67;11.65;;;;;;;6.46;84.16;99874.56;5026973;28;20121;-76
2022/03/29 05:08:54;;;;;;;18.63;11.00;;;;;;;6.51;83.77;99868.78;5028173;28;20124;-75
2022/03/29 05:11:20;;;;;;;18.13;10.48;;;;;;;6.50;84.30;99867.13;5027961;28;20037;-75
2022/03/29 05:13:46;;;;;;;17.98;10.38;;;;;;;6.46;83.32;99865.81;5027826;28;20049;-75
2022/03/29 05:16:11;;;;;;;15.75;9.85;;;;;;;6.50;82.59;99862.66;5026565;28;20042;-75
2022/03/29 05:18:37;;;;;;;20.92;10.70;;;;;;;6.50;83.80;99864.50;5028021;28;20033;-75
2022/03/29 05:21:02;;;;;;;20.10;11.23;;;;;;;6.49;85.06;99865.47;5027955;28;20057;-76
2022/03/29 05:23:28;;;;;;;18.63;10.70;;;;;;;6.47;85.40;99873.59;5026435;28;20503;-76
2022/03/29 05:25:54;;;;;;;24.30;9.73;;;;;;;6.51;85.37;99874.09;5026550;28;20041;-76
2022/03/29 05:28:19;;;;;;;17.55;10.15;;;;;;;6.46;84.97;99873.75;5026647;28;20046;-75
2022/03/29 05:30:45;;;;;;;21.38;10.90;;;;;;;6.48;84.43;99872.59;5026393;28;20513;-76
2022/03/29 05:33:15;;;;;;;21.30;11.07;;;;;;;6.47;84.80;99878.88;5018419;28;20046;-75
2022/03/29 05:35:43;;;;;;;24.83;11.68;;;;;;;6.50;85.08;99883.00;5014263;28;20034;-76
2022/03/29 05:38:08;;;;;;;22.73;11.18;;;;;;;6.49;84.15;99881.34;5014668;28;20030;-76
2022/03/29 05:40:34;;;;;;;21.52;12.60;;;;;;;6.51;85.02;99882.84;5014390;28;20060;-75
2022/03/29 05:43:00;;;;;;;18.85;10.13;;;;;;;6.50;84.59;99875.06;5012863;28;20080;-76
2022/03/29 05:45:25;;;;;;;18.75;11.85;;;;;;;6.49;84.88;99878.72;5014219;28;20088;-75
2022/03/29 05:50:35;;;;;;;27.40;11.55;;;;;;;6.61;84.19;99887.22;5014349;28;20475;-72
2022/03/29 05:53:02;;;;;;;25.05;11.75;;;;;;;6.68;84.50;99883.78;5014351;28;20030;-72
2022/03/29 05:55:28;;;;;;;25.55;11.98;;;;;;;6.66;84.26;99867.25;5012958;28;20076;-72
2022/03/29 05:57:54;;;;;;;25.02;12.30;;;;;;;6.80;83.72;99889.66;5014394;28;20509;-73
2022/03/29 06:00:23;;;;;;;22.83;11.95;;;;;;;6.88;84.14;99891.50;5014042;28;20117;-73
2022/03/29 06:02:51;;;;;;;25.75;11.88;;;;;;;6.92;83.64;99882.28;5028868;28;20145;-72
2022/03/29 06:05:17;;;;;;;22.57;10.53;;;;;;;7.00;83.97;99888.44;5013966;28;20044;-72
2022/03/29 06:07:42;;;;;;;21.23;10.90;;;;;;;6.99;84.22;99883.28;5014084;28;20277;-73
2022/03/29 06:10:09;;;;;;;22.05;11.13;;;;;;;7.01;84.49;99879.47;5012752;28;20092;-72
2022/03/29 06:12:38;;;;;;;17.63;11.07;;;;;;;7.04;85.02;99888.91;5013376;28;20089;-71
2022/03/29 06:15:05;;;;;;;22.48;11.52;;;;;;;7.10;85.59;99887.47;5013765;28;20092;-71
2022/03/29 06:17:31;;;;;;;19.40;9.70;;;;;;;7.13;85.98;99893.28;5013710;28;20117;-71
2022/03/29 06:19:57;;;;;;;19.10;10.48;;;;;;;7.24;84.23;99892.16;5013694;28;20503;-71
2022/03/29 06:22:22;;;;;;;22.27;10.90;;;;;;;7.33;83.57;99893.84;5013329;28;20168;-71
2022/03/29 06:24:48;;;;;;;20.42;11.52;;;;;;;7.39;83.82;99898.50;5012243;28;20041;-71
2022/03/29 06:27:14;;;;;;;20.25;11.10;;;;;;;7.51;82.70;99901.69;5013533;28;20038;-71
2022/03/29 06:29:40;;;;;;;22.88;11.13;;;;;;;7.61;83.33;99905.00;5012381;28;20042;-71
2022/03/29 06:32:06;;;;;;;21.55;11.77;;;;;;;7.70;84.05;99903.22;5013109;28;20497;-70
2022/03/29 06:34:32;;;;;;;24.30;12.18;;;;;;;7.79;83.41;99905.72;5013391;28;20133;-71
2022/03/29 06:36:58;;;;;;;21.63;11.40;;;;;;;7.90;82.07;99891.31;5013265;28;20125;-71
2022/03/29 06:39:23;;;;;;;35.13;11.82;;;;;;;7.93;82.71;99879.53;5013380;28;20065;-71
2022/03/29 06:41:50;;;;;;;24.98;12.68;;;;;;;8.04;79.72;99889.84;5013581;28;20042;-71
2022/03/29 06:44:17;;;;;;;25.08;12.63;;;;;;;8.21;83.01;99893.28;5012776;28;20398;-74
2022/03/29 06:46:43;;;;;;;25.98;12.30;;;;;;;8.34;82.75;99893.63;5028771;28;20188;-72
2022/03/29 06:49:09;;;;;;;24.88;12.32;;;;;;;8.43;83.06;99892.66;5013265;28;20049;-71
2022/03/29 06:51:36;;;;;;;24.63;13.52;;;;;;;8.51;83.25;99895.31;5012972;28;20080;-71
2022/03/29 06:54:04;;;;;;;22.37;12.23;;;;;;;8.62;81.99;99892.31;5013040;28;20075;-72
2022/03/29 06:56:30;;;;;;;21.83;12.73;;;;;;;8.77;79.02;99895.09;5013233;28;20109;-71
2022/03/29 06:58:57;;;;;;;23.15;12.23;;;;;;;8.87;81.45;99884.28;5012971;28;20080;-71
2022/03/29 07:01:23;;;;;;;22.80;12.45;;;;;;;8.97;81.47;99887.56;5011735;28;20121;-72
2022/03/29 07:03:48;;;;;;;20.33;11.52;;;;;;;9.11;79.35;99888.66;5011748;28;20117;-71
2022/03/29 07:06:14;;;;;;;23.45;12.57;;;;;;;9.30;78.13;99884.75;5013150;28;20089;-71
2022/03/29 07:11:16;;;;;;;27.92;13.57;;;;;;;9.40;76.65;99883.56;5013014;28;20042;-71
2022/03/29 07:11:26;;;;;;;20.75;11.77;;;;;;;9.55;74.67;99874.81;5012313;28;20491;-72
2022/03/29 07:13:53;;;;;;;31.77;14.20;;;;;;;9.72;73.23;99879.03;5027658;28;20044;-72
2022/03/29 07:16:20;;;;;;;27.48;12.70;;;;;;;9.85;71.32;99879.28;5012624;28;20483;-72
2022/03/29 07:18:46;;;;;;;22.60;12.53;;;;;;;9.98;70.50;99868.88;5011268;28;20050;-71
2022/03/29 07:21:11;;;;;;;28.08;13.23;;;;;;;10.14;70.76;99873.22;5012578;28;20285;-71
2022/03/29 07:23:38;;;;;;;25.73;13.75;;;;;;;10.27;70.25;99877.97;5012477;28;20132;-71
2022/03/29 07:26:05;;;;;;;23.65;13.63;;;;;;;10.37;72.78;99873.22;5012614;28;20030;-70
2022/03/29 07:28:30;;;;;;;29.35;13.10;;;;;;;10.44;69.24;99879.50;5012356;28;20040;-71
2022/03/29 07:30:56;;;;;;;26.65;13.15;;;;;;;10.55;67.56;99879.03;5010850;28;20042;-71
2022/03/29 07:33:22;;;;;;;23.13;13.10;;;;;;;10.68;66.95;99880.22;5011956;28;20101;-72
2022/03/29 07:35:48;;;;;;;27.02;13.55;;;;;;;10.82;65.17;99882.06;5012139;28;20046;-71
2022/03/29 07:38:14;;;;;;;25.00;12.68;;;;;;;10.92;67.34;99876.47;5012218;28;20034;-71
2022/03/29 07:40:41;;;;;;;28.70;12.57;;;;;;;11.07;63.88;99885.28;5011010;28;20033;-72
2022/03/29 07:43:09;;;;;;;31.87;13.73;;;;;;;11.15;65.23;99882.53;5011805;28;20050;-71
2022/03/29 07:45:35;;;;;;;24.27;13.80;;;;;;;11.31;62.30;99884.16;5012177;28;20045;-72
2022/03/29 07:48:03;;;;;;;23.20;13.25;;;;;;;11.42;60.96;99881.03;5012231;28;20030;-71
2022/03/29 07:50:30;;;;;;;28.15;13.45;;;;;;;11.46;62.03;99881.47;5012196;28;20030;-72
2022/03/29 07:52:59;;;;;;;24.63;13.07;;;;;;;11.53;60.08;99877.84;5026983;28;20360;-70
2022/03/29 07:55:26;;;;;;;25.70;13.38;;;;;;;11.66;61.07;99886.00;5011844;28;20514;-71
2022/03/29 07:57:51;;;;;;;24.47;13.53;;;;;;;11.78;60.99;99886.31;5012365;28;20038;-72
2022/03/29 08:00:33;;;;;;;27.40;13.25;;;;;;;11.90;60.70;99882.19;5012251;28;20042;-71
2022/03/29 08:03:04;;;;;;;20.27;12.10;;;;;;;11.96;62.01;99883.25;5011612;28;20045;-71
2022/03/29 08:05:31;;;;;;;23.70;12.10;;;;;;;12.13;59.30;99882.00;5012022;28;20073;-71
2022/03/29 08:07:58;;;;;;;20.27;11.60;;;;;;;12.32;60.55;99883.16;5012457;28;20021;-71
2022/03/29 08:10:25;;;;;;;24.48;13.18;;;;;;;12.39;61.57;99880.56;5012830;28;20053;-72
2022/03/29 08:12:51;;;;;;;26.30;14.38;;;;;;;12.49;60.13;99886.38;5013642;28;20406;-71
2022/03/29 08:15:17;;;;;;;27.23;12.73;;;;;;;12.59;61.88;99886.88;5012403;28;20120;-72
2022/03/29 08:17:43;;;;;;;25.85;13.52;;;;;;;12.72;60.33;99884.28;5011805;28;20038;-71
2022/03/29 08:20:09;;;;;;;35.55;14.32;;;;;;;12.87;59.74;99892.19;5011908;28;20049;-71
2022/03/29 08:22:35;;;;;;;31.55;14.98;;;;;;;12.90;61.33;99878.41;5011125;28;20045;-72
2022/03/29 08:25:03;;;;;;;30.52;16.05;;;;;;;13.08;56.63;99879.75;5011872;28;20075;-71
2022/03/29 08:27:28;;;;;;;29.08;15.02;;;;;;;13.15;55.79;99869.91;5011779;28;20188;-72
2022/03/29 08:29:54;;;;;;;29.88;14.95;;;;;;;13.35;55.97;99880.72;5011942;28;20553;-72
2022/03/29 08:32:20;;;;;;;30.08;15.10;;;;;;;13.38;56.57;99881.16;5010407;28;20040;-72
2022/03/29 08:34:46;;;;;;;40.30;19.15;;;;;;;13.46;52.91;99882.84;5012247;28;20132;-71
2022/03/29 08:37:11;;;;;;;32.83;16.42;;;;;;;13.65;52.37;99879.38;5011843;28;20048;-72
2022/03/29 08:39:37;;;;;;;41.08;18.45;;;;;;;13.87;51.06;99874.69;5010547;28;20037;-72
2022/03/29 08:42:10;;;;;;;42.88;18.70;;;;;;;13.96;52.74;99878.03;5011801;28;20030;-71
2022/03/29 08:44:38;;;;;;;40.63;19.33;;;;;;;13.98;51.13;99867.91;5027101;28;20053;-72
2022/03/29 08:47:09;;;;;;;39.05;19.65;;;;;;;14.08;51.66;99863.81;5012389;28;20089;-72
2022/03/29 08:49:35;;;;;;;35.75;17.92;;;;;;;14.14;52.04;99864.81;5011864;28;20113;-72
2022/03/29 08:52:01;;;;;;;34.03;16.83;;;;;;;14.37;52.43;99864.44;5011516;28;20435;-72
2022/03/29 08:54:27;;;;;;;37.28;17.95;;;;;;;14.31;49.88;99860.72;5011395;28;20038;-71
2022/03/29 08:56:53;;;;;;;34.70;19.98;;;;;;;14.50;51.20;99855.59;5011381;28;20542;-72
2022/03/29 08:59:20;;;;;;;41.72;19.92;;;;;;;14.46;49.84;99859.66;5011477;28;20042;-72
2022/03/29 09:01:47;;;;;;;37.07;18.73;;;;;;;14.59;50.52;99855.16;5011108;28;20117;-71
2022/03/29 09:04:14;;;;;;;38.05;19.63;;;;;;;14.83;50.63;99858.19;5011382;28;20113;-72
2022/03/29 09:06:58;;;;;;;37.00;18.33;;;;;;;14.92;47.51;99857.75;5011172;28;20097;-72
2022/03/29 09:09:44;;;;;;;38.67;20.05;;;;;;;14.95;47.79;99850.34;5014966;28;20111;-72
2022/03/29 09:12:21;;;;;;;37.05;19.40;;;;;;;15.17;48.09;99844.47;5014680;28;20116;-71
2022/03/29 09:14:59;;;;;;;39.70;18.73;;;;;;;14.91;49.01;99844.56;5015262;28;20547;-72
2022/03/29 09:17:39;;;;;;;41.72;20.73;;;;;;;15.15;47.78;99833.13;5014871;28;20026;-72
2022/03/29 09:20:10;;;;;;;41.85;19.90;;;;;;;15.50;47.14;99826.56;5015104;28;20376;-72
2022/03/29 09:22:42;;;;;;;40.45;19.55;;;;;;;15.57;46.41;99828.16;5014803;28;20038;-72
2022/03/29 09:25:13;;;;;;;39.80;19.95;;;;;;;15.76;46.10;99826.41;5015046;28;20445;-72
2022/03/29 09:28:00;;;;;;;36.22;20.05;;;;;;;15.77;46.42;99817.31;5014841;28;20034;-73
2022/03/29 09:30:38;;;;;;;45.97;20.60;;;;;;;15.67;46.40;99823.19;5015007;28;20042;-72
2022/03/29 09:33:31;;;;;;;38.60;20.20;;;;;;;15.18;46.35;99811.22;5014473;28;20151;-72
2022/03/29 09:35:57;;;;;;;43.47;19.90;;;;;;;15.38;45.84;99808.44;5011386;28;20054;-72
2022/03/29 09:38:31;;;;;;;37.70;19.73;;;;;;;15.22;46.08;99808.13;5014577;28;20038;-71
2022/03/29 09:40:58;;;;;;;44.08;19.95;;;;;;;15.20;46.10;99795.75;5014652;28;20518;-71
2022/03/29 09:43:42;;;;;;;41.30;20.25;;;;;;;15.16;47.50;99794.53;5012705;28;20650;-72
2022/03/29 09:46:08;;;;;;;45.28;21.33;;;;;;;14.90;46.74;99789.28;5014067;28;20045;-71
2022/03/29 09:48:39;;;;;;;44.17;20.40;;;;;;;15.14;47.60;99785.06;5014248;28;20049;-71
2022/03/29 09:51:08;;;;;;;39.97;20.25;;;;;;;15.26;46.96;99786.03;5014186;28;20089;-72
2022/03/29 09:53:45;;;;;;;35.17;18.40;;;;;;;15.56;46.43;99770.16;5013194;28;20045;-72
2022/03/29 09:56:13;;;;;;;33.88;18.35;;;;;;;15.74;47.87;99766.75;5014117;28;20041;-71
2022/03/29 09:58:40;;;;;;;40.75;20.75;;;;;;;15.64;48.32;99761.03;5014129;28;20152;-71
2022/03/29 10:01:20;;;;;;;42.35;21.30;;;;;;;15.90;46.48;99758.13;5013723;28;20046;-71
2022/03/29 10:03:46;;;;;;;41.33;20.15;;;;;;;16.03;48.16;99751.81;5013120;28;20132;-71
2022/03/29 10:06:12;;;;;;;35.10;18.27;;;;;;;16.40;46.05;99747.34;5013801;28;20034;-72
2022/03/29 10:11:28;;;;;;;40.83;19.92;;;;;;;16.98;42.18;99738.81;5014118;28;20061;-71
2022/03/29 10:13:53;;;;;;;37.03;19.52;;;;;;;17.15;41.52;99739.03;5013686;28;20069;-71
2022/03/29 10:16:20;;;;;;;36.90;18.95;;;;;;;17.16;41.24;99729.06;5014436;28;20034;-72
2022/03/29 10:18:46;;;;;;;34.33;17.38;;;;;;;17.40;42.82;99732.63;5012427;28;20096;-71
2022/03/29 10:21:14;;;;;;;37.65;18.55;;;;;;;17.68;40.47;99730.16;5013952;28;20099;-71
2022/03/29 10:23:42;;;;;;;;;;;;;;;18.23;40.37;99723.63;5013471;28;20513;-72
2022/03/29 10:26:09;;;;;;;32.45;16.75;;;;;;;18.12;41.31;99719.88;5013577;28;19917;-71
2022/03/29 10:28:35;;;;;;;32.22;16.50;;;;;;;18.56;40.96;99713.00;5013599;28;20049;-71
2022/03/29 10:31:01;;;;;;;37.33;18.58;;;;;;;18.37;37.71;99716.91;5029631;28;20026;-71
2022/03/29 10:33:31;;;;;;;31.52;17.85;;;;;;;18.44;38.58;99707.63;5012489;28;20042;-71
2022/03/29 10:36:06;;;;;;;33.95;18.08;;;;;;;19.26;37.93;99703.88;5013329;28;20124;-72
2022/03/29 10:38:47;;;;;;;36.40;18.55;;;;;;;19.52;38.27;99699.72;5012911;28;20034;-70
2022/03/29 10:41:28;;;;;;;32.92;17.55;;;;;;;20.11;37.01;99697.41;5013351;28;20036;-71
2022/03/29 10:44:11;;;;;;;30.73;17.38;;;;;;;19.93;35.95;99695.81;5012635;28;20087;-71
2022/03/29 10:46:37;;;;;;;33.17;17.40;;;;;;;20.03;37.17;99695.97;5013107;28;20124;-71
2022/03/29 10:49:24;;;;;;;35.65;17.42;;;;;;;19.65;36.97;99694.03;5012681;28;20112;-70
2022/03/29 10:51:54;;;;;;;;;;;;;;;19.37;38.58;99691.38;5012667;28;20036;-70
2022/03/29 10:54:49;;;;;;;33.72;17.48;;;;;;;18.73;40.50;99688.03;5013088;28;19969;-70
2022/03/29 10:57:26;;;;;;;27.75;15.80;;;;;;;18.60;38.01;99679.13;5017539;28;20542;-71
2022/03/29 11:00:18;;;;;;;31.90;16.77;;;;;;;18.24;36.39;99669.47;5012682;28;20042;-71
2022/03/29 11:03:21;;;;;;;29.23;16.80;;;;;;;18.46;38.15;99669.66;5011941;28;20034;-71
2022/03/29 11:06:10;;;;;;;28.63;16.33;;;;;;;18.33;37.62;99665.38;4981525;28;20609;-71
2022/03/29 11:08:49;;;;;;;31.98;16.40;;;;;;;19.15;38.36;99658.84;5010978;28;20522;-71
2022/03/29 11:11:36;;;;;;;31.10;16.55;;;;;;;19.29;37.12;99656.66;5012669;28;20037;-72
2022/03/29 11:14:27;;;;;;;30.33;16.17;;;;;;;19.40;36.36;99659.28;5012155;28;20525;-72
2022/03/29 11:17:14;;;;;;;31.67;17.20;;;;;;;19.71;37.93;99644.41;5012178;28;20511;-72
2022/03/29 11:19:44;;;;;;;34.88;16.63;;;;;;;20.33;33.83;99652.28;5012454;28;20044;-72
2022/03/29 11:22:41;;;;;;;28.50;16.33;;;;;;;20.52;35.57;99638.47;5010507;28;20495;-72
2022/03/29 11:25:09;;;;;;;26.02;15.02;;;;;;;21.04;34.08;99636.03;5012215;28;20499;-73
2022/03/29 11:27:37;;;;;;;29.92;14.77;;;;;;;21.45;33.32;99632.88;5012121;28;20034;-72
2022/03/29 11:30:09;;;;;;;29.58;15.95;;;;;;;20.45;34.17;99638.66;5010781;28;20041;-72
2022/03/29 11:32:36;;;;;;;27.48;15.80;;;;;;;19.95;33.02;99633.38;5010890;28;20034;-72
2022/03/29 11:35:05;;;;;;;30.77;16.55;;;;;;;20.73;32.66;99623.28;5011653;28;20052;-72
2022/03/29 11:37:37;;;;;;;28.05;16.58;;;;;;;21.14;30.55;99619.09;5010792;28;20052;-71
2022/03/29 11:40:05;;;;;;;24.83;14.52;;;;;;;21.28;31.44;99620.31;5012054;28;20030;-71
2022/03/29 11:42:49;;;;;;;25.17;14.43;;;;;;;21.38;32.11;99614.97;5011495;28;20053;-71
2022/03/29 11:45:23;;;;;;;24.13;14.32;;;;;;;20.54;34.53;99615.53;5011512;28;20491;-71
2022/03/29 11:47:59;;;;;;;25.08;13.38;;;;;;;20.44;34.14;99603.72;5012085;28;20033;-71
2022/03/29 11:50:36;;;;;;;25.77;15.38;;;;;;;20.17;33.11;99609.09;5012176;28;20112;-71
2022/03/29 11:53:14;;;;;;;28.08;13.68;;;;;;;20.62;33.22;99600.72;5011096;28;20063;-71
2022/03/29 11:55:39;;;;;;;;;;;;;;;20.01;33.85;99606.16;5012478;28;20557;-71
2022/03/29 11:58:23;;;;;;;19.60;13.60;;;;;;;20.61;29.99;99587.47;5011826;28;19913;-71
2022/03/29 12:00:48;;;;;;;19.80;13.48;;;;;;;20.21;34.20;99583.16;5011715;28;20144;-71
2022/03/29 12:03:26;;;;;;;28.60;13.88;;;;;;;20.65;32.63;99583.97;5010911;28;20632;-71
2022/03/29 12:06:02;;;;;;;22.60;13.32;;;;;;;20.77;30.62;99573.81;5011648;28;20049;-71
2022/03/29 12:08:51;;;;;;;19.05;13.23;;;;;;;20.39;29.64;99563.91;5012506;28;20406;-71
2022/03/29 12:11:20;;;;;;;22.75;13.05;;;;;;;20.16;29.14;99556.09;5011922;28;20064;-71
2022/03/29 12:13:47;;;;;;;19.90;11.85;;;;;;;20.22;31.86;99552.38;5011401;28;20471;-71
2022/03/29 12:16:21;;;;;;;23.92;13.63;;;;;;;19.81;33.01;99545.63;5011878;28;20037;-71
2022/03/29 12:18:47;;;;;;;19.05;11.82;;;;;;;20.02;30.00;99539.44;5012019;28;20037;-71
2022/03/29 12:21:15;;;;;;;22.33;12.65;;;;;;;20.85;29.47;99532.72;5011844;28;20137;-71
2022/03/29 12:23:42;;;;;;;25.00;14.07;;;;;;;20.69;30.04;99539.09;5011852;28;20096;-71
2022/03/29 12:26:12;;;;;;;17.77;11.88;;;;;;;21.62;28.62;99522.47;5012076;28;20034;-71
2022/03/29 12:28:39;;;;;;;21.75;13.05;;;;;;;21.64;28.68;99521.13;5011855;28;20045;-72
2022/03/29 12:31:11;;;;;;;19.85;12.15;;;;;;;21.51;27.38;99516.16;5011787;28;20045;-71
2022/03/29 12:33:38;;;;;;;20.65;12.75;;;;;;;21.09;30.86;99514.25;5011518;28;20065;-72
2022/03/29 12:36:06;;;;;;;18.13;12.13;;;;;;;21.08;28.76;99492.88;5011552;28;20116;-71
2022/03/29 12:39:03;;;;;;;20.85;12.07;;;;;;;21.54;27.34;99504.81;5011604;28;20033;-71
2022/03/29 12:41:38;;;;;;;;;;;;;;;20.89;28.28;99497.06;5003785;28;20127;-71
2022/03/29 12:44:06;;;;;;;19.23;11.63;;;;;;;20.91;27.88;99500.31;5014997;28;19979;-71
2022/03/29 12:46:32;;;;;;;20.08;11.60;;;;;;;21.01;28.05;99487.66;5015655;28;20452;-71
2022/03/29 12:48:58;;;;;;;19.10;10.93;;;;;;;20.54;30.91;99496.50;5014220;28;20038;-71
2022/03/29 12:51:32;;;;;;;17.45;11.43;;;;;;;20.75;27.94;99494.78;5015376;28;20045;-71
2022/03/29 12:54:00;;;;;;;27.38;12.25;;;;;;;20.87;30.14;99491.91;5015385;28;20049;-71
2022/03/29 12:56:32;;;;;;;16.38;11.25;;;;;;;20.83;28.24;99490.78;5015996;28;20050;-71
2022/03/29 12:58:58;;;;;;;16.92;11.10;;;;;;;20.45;29.39;99489.91;5016234;28;20080;-71
2022/03/29 13:01:26;;;;;;;21.80;10.90;;;;;;;20.52;28.33;99478.88;5016008;28;20022;-72
2022/03/29 13:03:52;;;;;;;17.40;10.68;;;;;;;20.36;28.93;99468.97;5015165;28;20038;-71
2022/03/29 13:06:18;;;;;;;15.73;11.07;;;;;;;20.37;29.11;99468.69;5015360;28;20041;-71
2022/03/29 13:08:43;;;;;;;19.60;10.93;;;;;;;20.18;29.23;99465.53;5015278;28;20141;-71
2022/03/29 13:11:20;;;;;;;20.67;11.38;;;;;;;20.13;27.92;99451.16;5030260;28;20487;-71
2022/03/29 13:14:02;;;;;;;17.15;10.63;;;;;;;20.44;28.23;99454.97;5014820;28;20049;-72
2022/03/29 13:16:28;;;;;;;16.73;10.60;;;;;;;20.30;30.29;99449.16;5015148;28;20103;-71
2022/03/29 13:18:53;;;;;;;20.10;10.57;;;;;;;20.65;28.97;99445.97;5015139;28;20488;-72
2022/03/29 13:21:25;;;;;;;21.40;10.18;;;;;;;20.20;29.12;99439.06;5014699;28;20060;-71
2022/03/29 13:23:55;;;;;;;18.63;10.82;;;;;;;20.48;27.18;99439.91;5030018;28;20113;-71
2022/03/29 13:26:27;;;;;;;15.82;10.27;;;;;;;20.68;27.70;99433.84;5014799;28;20038;-71
2022/03/29 13:28:54;;;;;;;19.90;10.65;;;;;;;20.74;28.53;99424.69;5014878;28;20041;-71
2022/03/29 13:31:22;;;;;;;24.88;10.00;;;;;;;20.52;27.49;99427.47;5014629;28;20050;-71
2022/03/29 13:33:53;;;;;;;17.00;9.32;;;;;;;20.76;27.59;99427.94;5014544;28;20040;-71
2022/03/29 13:36:22;;;;;;;17.77;10.02;;;;;;;20.30;30.50;99419.41;5014522;28;20099;-71
2022/03/29 13:38:50;;;;;;;13.60;10.07;;;;;;;20.29;28.22;99421.31;5014741;28;20562;-71
2022/03/29 13:41:18;;;;;;;15.48;10.27;;;;;;;20.58;27.71;99418.31;5014568;28;20602;-72
2022/03/29 13:43:44;;;;;;;17.63;9.50;;;;;;;19.93;30.68;99413.91;5014550;28;20064;-72
2022/03/29 13:46:11;;;;;;;19.63;9.03;;;;;;;20.14;30.13;99413.03;5014934;28;20121;-73
2022/03/29 13:48:38;;;;;;;16.83;9.63;;;;;;;20.37;27.77;99408.38;5014665;28;20521;-72
2022/03/29 13:51:11;;;;;;;16.75;9.05;;;;;;;20.37;29.09;99401.09;5013459;28;20026;-72
2022/03/29 13:53:37;;;;;;;14.27;9.85;;;;;;;20.69;27.58;99395.69;5013616;28;20044;-72
2022/03/29 13:56:04;;;;;;;15.77;9.07;;;;;;;20.47;27.72;99387.66;5014314;28;20046;-72
2022/03/29 13:58:29;;;;;;;13.10;8.40;;;;;;;20.47;29.03;99395.78;5014351;28;20525;-72
2022/03/29 14:00:56;;;;;;;17.30;9.90;;;;;;;20.18;30.15;99391.72;5014185;28;20076;-70
2022/03/29 14:03:22;;;;;;;14.48;9.82;;;;;;;20.66;26.27;99385.38;5013839;28;20042;-71
2022/03/29 14:05:48;;;;;;;14.88;9.13;;;;;;;20.73;27.84;99383.25;5014118;28;20049;-71
2022/03/29 14:08:14;;;;;;;14.32;9.38;;;;;;;20.55;26.88;99378.28;5014139;28;20037;-73
2022/03/29 14:10:41;;;;;;;14.90;8.52;;;;;;;20.58;26.25;99378.56;5014126;28;20042;-71
2022/03/29 14:13:08;;;;;;;11.02;8.23;;;;;;;20.79;26.00;99376.81;5013596;28;20045;-71
2022/03/29 14:15:36;;;;;;;13.10;8.75;;;;;;;20.44;29.93;99361.13;5014126;28;20037;-72
2022/03/29 14:18:07;;;;;;;;;;;;;;;20.42;26.71;99362.47;5014441;28;20038;-71
2022/03/29 14:20:40;;;;;;;14.15;9.27;;;;;;;19.96;29.71;99362.06;5014248;28;19917;-71
2022/03/29 14:23:09;;;;;;;14.40;9.18;;;;;;;20.41;28.66;99358.09;5013476;28;20117;-71
2022/03/29 14:25:37;;;;;;;13.35;9.82;;;;;;;20.45;26.65;99356.56;5013801;28;20036;-71
2022/03/29 14:28:04;;;;;;;15.57;9.60;;;;;;;20.53;27.02;99346.06;5012335;28;20095;-71
2022/03/29 14:30:30;;;;;;;19.42;9.32;;;;;;;20.44;27.84;99349.47;5013850;28;20038;-71
2022/03/29 14:32:56;;;;;;;40.92;13.10;;;;;;;19.82;29.29;99340.03;5013268;28;20040;-70
2022/03/29 14:35:22;;;;;;;14.15;9.40;;;;;;;19.90;27.41;99344.16;5014107;28;20042;-75
2022/03/29 14:37:47;;;;;;;50.75;13.90;;;;;;;19.92;27.34;99325.81;5014767;28;20029;-71
2022/03/29 14:40:13;;;;;;;13.27;9.52;;;;;;;19.93;27.17;99322.03;5016501;28;20514;-71
2022/03/29 14:42:40;;;;;;;17.88;8.88;;;;;;;19.86;27.85;99321.41;5014940;28;20052;-71
2022/03/29 14:45:09;;;;;;;22.13;9.80;;;;;;;19.95;29.84;99319.88;5016234;28;20068;-71
2022/03/29 14:47:36;;;;;;;17.33;9.52;;;;;;;20.06;27.38;99324.31;5013988;28;20096;-72
2022/03/29 14:50:04;;;;;;;15.27;9.15;;;;;;;19.89;27.70;99315.53;5013508;28;20096;-70
2022/03/29 14:52:29;;;;;;;18.48;8.95;;;;;;;20.08;27.70;99318.63;5013095;28;20050;-72
2022/03/29 14:54:55;;;;;;;18.45;10.90;;;;;;;19.96;27.47;99316.13;5012105;28;20073;-72
2022/03/29 14:57:21;;;;;;;16.00;9.18;;;;;;;19.95;26.23;99317.16;5013747;28;20487;-72
2022/03/29 14:59:47;;;;;;;18.80;10.07;;;;;;;19.88;25.82;99303.88;5014362;28;20038;-72
2022/03/29 15:02:12;;;;;;;12.98;9.35;;;;;;;19.76;27.50;99317.56;5013376;28;20387;-72
2022/03/29 15:04:38;;;;;;;13.43;9.27;;;;;;;19.86;28.61;99302.50;5013450;28;20045;-72
2022/03/29 15:07:05;;;;;;;15.75;9.48;;;;;;;19.50;28.18;99304.84;5013017;28;20042;-70
2022/03/29 15:09:32;;;;;;;17.60;10.70;;;;;;;19.36;28.49;99307.09;5013521;28;20045;-70
2022/03/29 15:11:58;;;;;;;14.48;10.00;;;;;;;19.39;27.80;99292.28;5013291;28;20037;-71
2022/03/29 15:14:24;;;;;;;16.00;9.13;;;;;;;19.19;30.01;99301.78;5013000;28;20084;-70
2022/03/29 15:16:50;;;;;;;18.30;9.48;;;;;;;19.37;28.90;99299.84;5012737;28;20376;-70
2022/03/29 15:19:15;;;;;;;15.13;9.13;;;;;;;19.03;31.54;99275.69;5012925;28;20053;-70
2022/03/29 15:21:41;;;;;;;16.17;9.82;;;;;;;19.06;30.83;99279.78;5012665;28;20750;-70
2022/03/29 15:24:08;;;;;;;22.95;13.75;;;;;;;18.99;29.03;99290.75;5012497;28;20586;-70
2022/03/29 15:26:34;;;;;;;15.48;9.73;;;;;;;18.92;30.35;99288.25;5012488;28;20088;-70
2022/03/29 15:29:00;;;;;;;15.90;9.80;;;;;;;18.91;31.06;99291.22;5012509;28;20046;-71
2022/03/29 15:31:25;;;;;;;17.80;10.30;;;;;;;18.83;32.56;99299.72;5027336;28;20053;-70
2022/03/29 15:33:51;;;;;;;19.83;11.38;;;;;;;18.72;30.63;99295.28;5012162;28;20034;-70
2022/03/29 15:36:17;;;;;;;20.67;11.63;;;;;;;18.88;30.52;99294.38;5012085;28;20045;-70
2022/03/29 15:38:44;;;;;;;16.45;10.50;;;;;;;18.93;30.30;99292.56;5012644;28;20070;-70
2022/03/29 15:41:12;;;;;;;20.27;11.50;;;;;;;19.15;30.08;99294.44;5012218;28;20530;-70
2022/03/29 15:43:41;;;;;;;21.05;12.27;;;;;;;19.22;29.82;99282.38;5012215;28;20042;-70
2022/03/29 15:46:07;;;;;;;20.20;11.25;;;;;;;19.21;31.34;99279.94;5012119;28;20499;-69
2022/03/29 15:48:33;;;;;;;20.05;11.52;;;;;;;19.21;29.25;99282.66;5012400;28;20137;-70
2022/03/29 15:51:00;;;;;;;19.08;10.55;;;;;;;18.97;29.64;99277.53;5012408;28;20034;-69
2022/03/29 15:53:26;;;;;;;18.92;11.00;;;;;;;18.95;29.60;99285.03;5011903;28;20037;-69
2022/03/29 15:55:51;;;;;;;18.23;11.45;;;;;;;19.03;29.86;99274.88;5011975;28;20042;-70
2022/03/29 15:58:20;;;;;;;19.95;12.07;;;;;;;18.90;29.51;99257.97;5012010;28;20053;-70